AirNav   Everest Fuels
 
 1109 users online  

0AZ0 Arizona Heart Hospital Heliport
Phoenix, Arizona, USA

GOING TO PHOENIX?


FAA INFORMATION EFFECTIVE 08 SEPTEMBER 2022

Location

FAA Identifier: 0AZ0
Lat/Long: 33-28-52.5000N 112-02-24.5000W
33-28.875000N 112-02.408333W
33.4812500,-112.0401389
(estimated)
Elevation: 1161 ft. / 354 m (estimated)
Variation: 12E (1995)
From city: 3 miles N of PHOENIX, AZ
Time zone: UTC -7 (year round; does not observe DST)
Zip code: 85016

Heliport Operations

Heliport use: Private use. Permission required prior to landing
Activation date: 09/1999
Control tower: no
ARTCC: ALBUQUERQUE CENTER
FSS: PRESCOTT FLIGHT SERVICE STATION
Attendance: CONTINUOUS
Wind indicator: lighted
Segmented circle: no
Lights: DUSK-DAWN. FOR FLOOD LGTS CALL (602) 532-1000 OR 5 CLICKS ON FREQ 123.05.
Beacon: white-green-yellow (heliport)
Operates sunset to sunrise.

Heliport Communications

WX ASOS at PHX (3 nm SE): PHONE 602-231-8557
WX ASOS at SDL (11 nm NE): PHONE 480-483-3049
WX ASOS at DVT (13 nm N): 126.5 (623-587-7764)
WX AWOS-3 at GEU (13 nm W): PHONE 623-877-8609
WX ASOS at FFZ (16 nm E): PHONE 480-641-4111
WX AWOS-3PT at CHD (17 nm SE): PHONE 480-814-9952

Nearby radio navigation aids

VOR radial/distance  VOR name  Freq  Var
PXRr298/4.5PHOENIX VORTAC115.6012E
IWAr286/22.2WILLIE VORTAC113.3013E
TFDr338/36.3STANFIELD VORTAC114.8012E
BXKr074/39.3BUCKEYE VORTAC110.6014E

Heliport Services

Runway Information

Helipad H1

Dimensions: 40 x 40 ft. / 12 x 12 m
Surface: mats
Runway edge lights: PERI
FLOOD LGTS ALSO AVBL.
Operational restrictions: ROOFTOP HELIPAD.
Latitude: 33-28.876333N
Longitude: 112-02.386333W
Elevation: 1161.0 ft.
Traffic pattern: leftleft

Heliport Ownership and Management from official FAA records

Ownership: Privately-owned
Owner: ARIZONA HEART HOSPITAL
1930 EAST THOMAS RD
PHOENIX, AZ 85016
Phone 602-532-1000
Manager: TIM RILEY
ARIZONA HEART HOSPITAL, 1930 EAST THOMAS RD
PHOENIX, AZ 85016
Phone (602) 532-2176

Additional Remarks

FOR CD CTC PHOENIX APCH AT 602-306-2565.

Instrument Procedures

There are no published instrument procedures at 0AZ0.

Some nearby airports with instrument procedures:

KPHX - Phoenix Sky Harbor International Airport (3 nm SE)
KSDL - Scottsdale Airport (11 nm NE)
P19 - Stellar Airpark (13 nm SE)
KDVT - Phoenix Deer Valley Airport (13 nm N)
KGEU - Glendale Municipal Airport (13 nm W)
KFFZ - Falcon Field Airport (16 nm E)
KCHD - Chandler Municipal Airport (17 nm SE)
KGYR - Phoenix Goodyear Airport (17 nm W)
KLUF - Luke Air Force Base (17 nm W)
 
Loc | Ops | Rwys | IFR | FBO | Links
Com | Nav | Svcs | Stats | Notes
Area around 0AZ0 (Arizona Heart Hospital Heliport)
 
Road maps at: MapQuest Bing Google
 
Aerial photo
No photo
 
Sectional chart

 
Airport distance calculator
Flying to Arizona Heart Hospital Heliport? Find the distance to fly.

From to 0AZ0

Sunrise and sunset
Times for 02-Oct-2022
 Local
(UTC-7)
 Zulu
(UTC)
Morning civil twilight05:5912:59
Sunrise06:2413:24
Sunset18:1101:11
Evening civil twilight18:3601:36

Current date and time
Zulu (UTC)  02-Oct-2022 21:58:58
Local (UTC-7)  02-Oct-2022 14:58:58
 
METAR
KPHX 
3nm S 
022151Z 17010G15KT 10SM FEW100 SCT250 36/11 A2983 RMK AO2 SLP079 CB DSNT NW-N TCU DSNT SE T03560111 $
KSDL 
10nm NE 
022153Z 25008KT 10SM CLR 34/11 A2987 RMK AO2 SLP088 T03390111
KDVT 
12nm N 
022153Z 29004KT 10SM CLR 33/12 A2986 RMK AO2 SLP085 T03330117
KGEU 
13nm W 
022058Z 00000KT 10SM SCT100 34/13 A2984
KFFZ 
16nm E 
022054Z 26003G14KT 10SM CLR 34/11 A2986 RMK AO2 SLP087 T03390111 58024
KLUF 
16nm W 
022155Z AUTO 16004KT 10SM CLR 35/12 A2983 RMK AO2 SLP085 T03510115 $
KGYR 
17nm W 
022147Z VRB06KT 10SM SCT100 SCT250 35/14 A2986
KCHD 
17nm SE 
022147Z 00000KT 10SM FEW100 35/12 A2985
TAF
KPHX 
3nm S 
021720Z 0218/0324 16007KT P6SM FEW100 FEW150 FM022200 21007KT P6SM FEW100 FEW150 FM030000 25006KT P6SM FEW100 FEW150 FM030400 10005KT P6SM FEW100 SCT150 SCT250 FM031700 14008KT P6SM FEW100 FEW150 FM032100 28008KT P6SM FEW100 FEW150
KSDL 
10nm NE 
021720Z 0218/0318 VRB04KT P6SM FEW100 FEW150 FM022100 21007KT P6SM FEW100 FEW150 FM030300 04005KT P6SM FEW100 SCT150 SCT250 FM030800 VRB03KT P6SM FEW100 FEW150
KDVT 
12nm N 
021720Z 0218/0318 18008KT P6SM FEW100 FEW150 FM022200 23009KT P6SM FEW100 FEW150 FM030400 03008KT P6SM FEW100 SCT150 SCT250 FM030900 VRB04KT P6SM FEW100 FEW150
NOTAMs
Click for the latest NOTAMs
NOTAMs are issued by the DoD/FAA and will open in a separate window not controlled by AirNav.

 

 
 

Would you like to see your business listed on this page?

 If your business provides an interesting product or service to pilots, flight crews, aircraft, or users of the Arizona Heart Hospital Heliport, you should consider listing it here.  To start the listing process, click on the button below
 
Add a business
 

Other Pages about Arizona Heart Hospital Heliport

Update a link
 
Copyright © AirNav, LLC. All rights reserved. Privacy Policy  Contact